sensor_id;sensor_type;location;lat;lon;timestamp;P1;durP1;ratioP1;P2;durP2;ratioP2
25731;SDS011;13585;50.864;4.406;2022-07-05T00:00:45;3.22;;;2.50;;
25731;SDS011;13585;50.864;4.406;2022-07-05T00:03:11;3.95;;;2.70;;
25731;SDS011;13585;50.864;4.406;2022-07-05T00:05:37;2.78;;;2.33;;
25731;SDS011;13585;50.864;4.406;2022-07-05T00:08:03;3.03;;;2.53;;
25731;SDS011;13585;50.864;4.406;2022-07-05T00:10:30;3.33;;;2.40;;
25731;SDS011;13585;50.864;4.406;2022-07-05T00:12:56;3.33;;;2.40;;
25731;SDS011;13585;50.864;4.406;2022-07-05T00:15:22;3.35;;;2.38;;
25731;SDS011;13585;50.864;4.406;2022-07-05T00:17:48;3.15;;;2.40;;
25731;SDS011;13585;50.864;4.406;2022-07-05T00:20:14;2.40;;;2.00;;
25731;SDS011;13585;50.864;4.406;2022-07-05T00:22:40;3.38;;;2.30;;
25731;SDS011;13585;50.864;4.406;2022-07-05T00:25:06;3.38;;;2.15;;
25731;SDS011;13585;50.864;4.406;2022-07-05T00:27:32;5.10;;;2.05;;
25731;SDS011;13585;50.864;4.406;2022-07-05T00:29:57;2.72;;;2.15;;
25731;SDS011;13585;50.864;4.406;2022-07-05T00:32:23;3.28;;;2.35;;
25731;SDS011;13585;50.864;4.406;2022-07-05T00:34:48;3.35;;;2.00;;
25731;SDS011;13585;50.864;4.406;2022-07-05T00:37:14;3.65;;;1.70;;
25731;SDS011;13585;50.864;4.406;2022-07-05T00:39:40;3.17;;;1.60;;
25731;SDS011;13585;50.864;4.406;2022-07-05T00:42:06;3.95;;;2.30;;
25731;SDS011;13585;50.864;4.406;2022-07-05T00:44:35;4.07;;;2.03;;
25731;SDS011;13585;50.864;4.406;2022-07-05T00:47:03;3.30;;;2.38;;
25731;SDS011;13585;50.864;4.406;2022-07-05T00:49:30;2.60;;;2.15;;
25731;SDS011;13585;50.864;4.406;2022-07-05T00:51:57;3.10;;;2.10;;
25731;SDS011;13585;50.864;4.406;2022-07-05T00:54:24;2.55;;;2.00;;
25731;SDS011;13585;50.864;4.406;2022-07-05T00:56:51;2.88;;;2.13;;
25731;SDS011;13585;50.864;4.406;2022-07-05T00:59:18;2.45;;;1.88;;
25731;SDS011;13585;50.864;4.406;2022-07-05T01:01:44;2.83;;;1.85;;
25731;SDS011;13585;50.864;4.406;2022-07-05T01:04:10;3.15;;;2.05;;
25731;SDS011;13585;50.864;4.406;2022-07-05T01:06:36;2.45;;;2.00;;
25731;SDS011;13585;50.864;4.406;2022-07-05T01:09:03;3.10;;;1.88;;
25731;SDS011;13585;50.864;4.406;2022-07-05T01:11:29;2.35;;;1.90;;
25731;SDS011;13585;50.864;4.406;2022-07-05T01:13:56;2.47;;;1.98;;
25731;SDS011;13585;50.864;4.406;2022-07-05T01:16:24;2.15;;;1.73;;
25731;SDS011;13585;50.864;4.406;2022-07-05T01:18:50;2.75;;;1.98;;
25731;SDS011;13585;50.864;4.406;2022-07-05T01:21:16;2.95;;;1.77;;
25731;SDS011;13585;50.864;4.406;2022-07-05T01:23:44;4.05;;;1.92;;
25731;SDS011;13585;50.864;4.406;2022-07-05T01:26:10;2.10;;;1.70;;
25731;SDS011;13585;50.864;4.406;2022-07-05T01:28:36;1.65;;;1.55;;
25731;SDS011;13585;50.864;4.406;2022-07-05T01:31:02;2.72;;;1.90;;
25731;SDS011;13585;50.864;4.406;2022-07-05T01:33:28;2.72;;;1.70;;
25731;SDS011;13585;50.864;4.406;2022-07-05T01:35:54;2.63;;;2.20;;
25731;SDS011;13585;50.864;4.406;2022-07-05T01:38:21;2.45;;;2.08;;
25731;SDS011;13585;50.864;4.406;2022-07-05T01:40:46;3.42;;;1.90;;
25731;SDS011;13585;50.864;4.406;2022-07-05T01:43:16;2.00;;;1.80;;
25731;SDS011;13585;50.864;4.406;2022-07-05T01:45:48;2.55;;;2.00;;
25731;SDS011;13585;50.864;4.406;2022-07-05T01:48:14;2.80;;;1.88;;
25731;SDS011;13585;50.864;4.406;2022-07-05T01:53:15;2.53;;;1.67;;
25731;SDS011;13585;50.864;4.406;2022-07-05T01:55:47;2.03;;;1.75;;
25731;SDS011;13585;50.864;4.406;2022-07-05T01:58:13;2.10;;;1.70;;
25731;SDS011;13585;50.864;4.406;2022-07-05T02:00:48;2.17;;;1.73;;
25731;SDS011;13585;50.864;4.406;2022-07-05T02:03:16;2.88;;;1.67;;
25731;SDS011;13585;50.864;4.406;2022-07-05T02:05:42;3.17;;;1.67;;
25731;SDS011;13585;50.864;4.406;2022-07-05T02:08:09;1.95;;;1.67;;
25731;SDS011;13585;50.864;4.406;2022-07-05T02:10:36;1.95;;;1.50;;
25731;SDS011;13585;50.864;4.406;2022-07-05T02:13:03;2.17;;;1.70;;
25731;SDS011;13585;50.864;4.406;2022-07-05T02:15:36;3.60;;;1.65;;
25731;SDS011;13585;50.864;4.406;2022-07-05T02:18:03;1.83;;;1.40;;
25731;SDS011;13585;50.864;4.406;2022-07-05T02:20:30;2.50;;;1.73;;
25731;SDS011;13585;50.864;4.406;2022-07-05T02:22:57;1.63;;;1.48;;
25731;SDS011;13585;50.864;4.406;2022-07-05T02:25:23;2.08;;;1.30;;
25731;SDS011;13585;50.864;4.406;2022-07-05T02:27:49;2.60;;;1.60;;
25731;SDS011;13585;50.864;4.406;2022-07-05T02:30:16;2.10;;;1.52;;
25731;SDS011;13585;50.864;4.406;2022-07-05T02:32:42;1.88;;;1.40;;
25731;SDS011;13585;50.864;4.406;2022-07-05T02:35:09;1.80;;;1.30;;
25731;SDS011;13585;50.864;4.406;2022-07-05T02:37:35;2.60;;;1.65;;
25731;SDS011;13585;50.864;4.406;2022-07-05T02:40:02;2.00;;;1.40;;
25731;SDS011;13585;50.864;4.406;2022-07-05T02:42:29;1.60;;;1.33;;
25731;SDS011;13585;50.864;4.406;2022-07-05T02:44:55;1.58;;;1.40;;
25731;SDS011;13585;50.864;4.406;2022-07-05T02:47:20;2.20;;;1.40;;
25731;SDS011;13585;50.864;4.406;2022-07-05T02:49:46;2.25;;;1.50;;
25731;SDS011;13585;50.864;4.406;2022-07-05T02:52:12;2.28;;;1.50;;
25731;SDS011;13585;50.864;4.406;2022-07-05T02:54:37;1.85;;;1.40;;
25731;SDS011;13585;50.864;4.406;2022-07-05T02:57:04;2.92;;;1.70;;
25731;SDS011;13585;50.864;4.406;2022-07-05T02:59:30;1.92;;;1.38;;
25731;SDS011;13585;50.864;4.406;2022-07-05T03:01:56;2.17;;;1.58;;
25731;SDS011;13585;50.864;4.406;2022-07-05T03:04:22;2.47;;;1.52;;
25731;SDS011;13585;50.864;4.406;2022-07-05T03:06:48;2.90;;;1.63;;
25731;SDS011;13585;50.864;4.406;2022-07-05T03:09:13;2.22;;;1.50;;
25731;SDS011;13585;50.864;4.406;2022-07-05T03:11:39;1.77;;;1.33;;
25731;SDS011;13585;50.864;4.406;2022-07-05T03:14:05;1.35;;;1.10;;
25731;SDS011;13585;50.864;4.406;2022-07-05T03:16:30;1.55;;;1.35;;
25731;SDS011;13585;50.864;4.406;2022-07-05T03:18:56;2.00;;;1.48;;
25731;SDS011;13585;50.864;4.406;2022-07-05T03:21:22;2.17;;;1.60;;
25731;SDS011;13585;50.864;4.406;2022-07-05T03:23:47;1.73;;;1.40;;
25731;SDS011;13585;50.864;4.406;2022-07-05T03:26:13;2.13;;;1.30;;
25731;SDS011;13585;50.864;4.406;2022-07-05T03:28:38;2.45;;;1.60;;
25731;SDS011;13585;50.864;4.406;2022-07-05T03:31:04;1.95;;;1.30;;
25731;SDS011;13585;50.864;4.406;2022-07-05T03:33:30;1.40;;;1.10;;
25731;SDS011;13585;50.864;4.406;2022-07-05T03:35:56;1.58;;;1.40;;
25731;SDS011;13585;50.864;4.406;2022-07-05T03:38:22;1.58;;;1.20;;
25731;SDS011;13585;50.864;4.406;2022-07-05T03:40:48;3.15;;;1.67;;
25731;SDS011;13585;50.864;4.406;2022-07-05T03:43:13;3.25;;;1.50;;
25731;SDS011;13585;50.864;4.406;2022-07-05T03:45:39;2.80;;;1.40;;
25731;SDS011;13585;50.864;4.406;2022-07-05T03:48:05;2.55;;;1.58;;
25731;SDS011;13585;50.864;4.406;2022-07-05T03:50:30;1.55;;;1.30;;
25731;SDS011;13585;50.864;4.406;2022-07-05T03:52:56;1.70;;;1.50;;
25731;SDS011;13585;50.864;4.406;2022-07-05T03:55:22;1.63;;;1.30;;
25731;SDS011;13585;50.864;4.406;2022-07-05T03:57:47;3.90;;;1.60;;
25731;SDS011;13585;50.864;4.406;2022-07-05T04:00:13;1.98;;;1.17;;
25731;SDS011;13585;50.864;4.406;2022-07-05T04:02:39;1.45;;;1.30;;
25731;SDS011;13585;50.864;4.406;2022-07-05T04:05:05;1.50;;;1.20;;
25731;SDS011;13585;50.864;4.406;2022-07-05T04:07:31;2.20;;;1.58;;
25731;SDS011;13585;50.864;4.406;2022-07-05T04:09:57;1.60;;;1.27;;
25731;SDS011;13585;50.864;4.406;2022-07-05T04:12:23;1.40;;;1.30;;
25731;SDS011;13585;50.864;4.406;2022-07-05T04:14:49;2.95;;;1.50;;
25731;SDS011;13585;50.864;4.406;2022-07-05T04:17:14;1.17;;;1.08;;
25731;SDS011;13585;50.864;4.406;2022-07-05T04:19:40;1.73;;;1.30;;
25731;SDS011;13585;50.864;4.406;2022-07-05T04:22:06;1.70;;;1.20;;
25731;SDS011;13585;50.864;4.406;2022-07-05T04:24:31;1.45;;;1.23;;
25731;SDS011;13585;50.864;4.406;2022-07-05T04:27:17;1.38;;;1.27;;
25731;SDS011;13585;50.864;4.406;2022-07-05T04:29:43;2.08;;;1.25;;
25731;SDS011;13585;50.864;4.406;2022-07-05T04:32:08;1.70;;;1.38;;
25731;SDS011;13585;50.864;4.406;2022-07-05T04:34:36;2.45;;;1.30;;
25731;SDS011;13585;50.864;4.406;2022-07-05T04:37:02;1.60;;;1.20;;
25731;SDS011;13585;50.864;4.406;2022-07-05T04:39:28;1.83;;;1.23;;
25731;SDS011;13585;50.864;4.406;2022-07-05T04:41:54;1.45;;;1.15;;
25731;SDS011;13585;50.864;4.406;2022-07-05T04:44:19;1.58;;;1.30;;
25731;SDS011;13585;50.864;4.406;2022-07-05T04:46:45;1.27;;;1.05;;
25731;SDS011;13585;50.864;4.406;2022-07-05T04:49:10;1.90;;;1.30;;
25731;SDS011;13585;50.864;4.406;2022-07-05T04:51:36;2.25;;;1.10;;
25731;SDS011;13585;50.864;4.406;2022-07-05T04:54:02;1.67;;;1.10;;
25731;SDS011;13585;50.864;4.406;2022-07-05T04:56:27;1.30;;;1.10;;
25731;SDS011;13585;50.864;4.406;2022-07-05T04:58:53;1.42;;;1.08;;
25731;SDS011;13585;50.864;4.406;2022-07-05T05:01:19;2.58;;;0.95;;
25731;SDS011;13585;50.864;4.406;2022-07-05T05:03:44;1.17;;;1.08;;
25731;SDS011;13585;50.864;4.406;2022-07-05T05:06:10;1.20;;;1.10;;
25731;SDS011;13585;50.864;4.406;2022-07-05T05:08:36;2.83;;;1.00;;
25731;SDS011;13585;50.864;4.406;2022-07-05T05:11:01;1.33;;;1.00;;
25731;SDS011;13585;50.864;4.406;2022-07-05T05:13:27;3.55;;;1.00;;
25731;SDS011;13585;50.864;4.406;2022-07-05T05:15:52;1.17;;;1.00;;
25731;SDS011;13585;50.864;4.406;2022-07-05T05:18:18;1.25;;;0.90;;
25731;SDS011;13585;50.864;4.406;2022-07-05T05:20:46;1.60;;;1.35;;
25731;SDS011;13585;50.864;4.406;2022-07-05T05:23:11;1.35;;;1.20;;
25731;SDS011;13585;50.864;4.406;2022-07-05T05:25:37;2.03;;;1.30;;
25731;SDS011;13585;50.864;4.406;2022-07-05T05:28:03;1.38;;;1.10;;
25731;SDS011;13585;50.864;4.406;2022-07-05T05:30:29;3.33;;;1.45;;
25731;SDS011;13585;50.864;4.406;2022-07-05T05:32:55;2.80;;;1.40;;
25731;SDS011;13585;50.864;4.406;2022-07-05T05:35:20;3.85;;;1.50;;
25731;SDS011;13585;50.864;4.406;2022-07-05T05:37:47;4.75;;;1.60;;
25731;SDS011;13585;50.864;4.406;2022-07-05T05:40:24;4.22;;;1.48;;
25731;SDS011;13585;50.864;4.406;2022-07-05T05:42:50;3.40;;;1.27;;
25731;SDS011;13585;50.864;4.406;2022-07-05T05:45:16;2.60;;;1.40;;
25731;SDS011;13585;50.864;4.406;2022-07-05T05:47:46;3.75;;;1.30;;
25731;SDS011;13585;50.864;4.406;2022-07-05T05:50:12;2.22;;;1.05;;
25731;SDS011;13585;50.864;4.406;2022-07-05T05:52:39;3.13;;;1.02;;
25731;SDS011;13585;50.864;4.406;2022-07-05T05:55:05;3.15;;;1.15;;
25731;SDS011;13585;50.864;4.406;2022-07-05T05:57:31;3.13;;;1.10;;
25731;SDS011;13585;50.864;4.406;2022-07-05T05:59:58;1.90;;;1.10;;
25731;SDS011;13585;50.864;4.406;2022-07-05T06:02:24;3.38;;;1.20;;
25731;SDS011;13585;50.864;4.406;2022-07-05T06:04:49;1.90;;;1.10;;
25731;SDS011;13585;50.864;4.406;2022-07-05T06:07:15;5.45;;;1.23;;
25731;SDS011;13585;50.864;4.406;2022-07-05T06:09:40;4.35;;;1.38;;
25731;SDS011;13585;50.864;4.406;2022-07-05T06:12:06;1.52;;;0.90;;
25731;SDS011;13585;50.864;4.406;2022-07-05T06:14:32;1.67;;;0.85;;
25731;SDS011;13585;50.864;4.406;2022-07-05T06:16:57;2.67;;;1.08;;
25731;SDS011;13585;50.864;4.406;2022-07-05T06:19:23;2.25;;;0.98;;
25731;SDS011;13585;50.864;4.406;2022-07-05T06:21:49;4.55;;;1.08;;
25731;SDS011;13585;50.864;4.406;2022-07-05T06:24:14;3.15;;;1.20;;
25731;SDS011;13585;50.864;4.406;2022-07-05T06:26:40;2.13;;;1.20;;
25731;SDS011;13585;50.864;4.406;2022-07-05T06:29:05;2.15;;;1.08;;
25731;SDS011;13585;50.864;4.406;2022-07-05T06:31:31;2.65;;;1.05;;
25731;SDS011;13585;50.864;4.406;2022-07-05T06:33:57;3.25;;;1.60;;
25731;SDS011;13585;50.864;4.406;2022-07-05T06:36:22;5.72;;;1.17;;
25731;SDS011;13585;50.864;4.406;2022-07-05T06:38:48;1.65;;;1.20;;
25731;SDS011;13585;50.864;4.406;2022-07-05T06:41:13;1.65;;;1.20;;
25731;SDS011;13585;50.864;4.406;2022-07-05T06:43:39;1.17;;;1.00;;
25731;SDS011;13585;50.864;4.406;2022-07-05T06:46:05;1.65;;;1.10;;
25731;SDS011;13585;50.864;4.406;2022-07-05T06:48:30;2.72;;;1.23;;
25731;SDS011;13585;50.864;4.406;2022-07-05T06:50:56;9.80;;;1.25;;
25731;SDS011;13585;50.864;4.406;2022-07-05T06:53:22;3.33;;;1.17;;
25731;SDS011;13585;50.864;4.406;2022-07-05T06:55:47;1.73;;;1.10;;
25731;SDS011;13585;50.864;4.406;2022-07-05T06:58:13;2.88;;;1.38;;
25731;SDS011;13585;50.864;4.406;2022-07-05T07:00:39;1.27;;;0.90;;
25731;SDS011;13585;50.864;4.406;2022-07-05T07:03:05;1.83;;;1.10;;
25731;SDS011;13585;50.864;4.406;2022-07-05T07:05:31;2.65;;;1.05;;
25731;SDS011;13585;50.864;4.406;2022-07-05T07:07:56;1.98;;;0.90;;
25731;SDS011;13585;50.864;4.406;2022-07-05T07:10:41;2.13;;;1.10;;
25731;SDS011;13585;50.864;4.406;2022-07-05T07:13:06;3.15;;;1.20;;
25731;SDS011;13585;50.864;4.406;2022-07-05T07:15:32;2.78;;;1.20;;
25731;SDS011;13585;50.864;4.406;2022-07-05T07:18:02;1.80;;;0.88;;
25731;SDS011;13585;50.864;4.406;2022-07-05T07:20:28;7.68;;;1.52;;
25731;SDS011;13585;50.864;4.406;2022-07-05T07:22:54;4.03;;;0.90;;
25731;SDS011;13585;50.864;4.406;2022-07-05T07:25:20;2.80;;;1.10;;
25731;SDS011;13585;50.864;4.406;2022-07-05T07:27:48;3.63;;;1.35;;
25731;SDS011;13585;50.864;4.406;2022-07-05T07:30:16;1.25;;;1.02;;
25731;SDS011;13585;50.864;4.406;2022-07-05T07:32:44;2.80;;;1.05;;
25731;SDS011;13585;50.864;4.406;2022-07-05T07:35:11;3.42;;;1.02;;
25731;SDS011;13585;50.864;4.406;2022-07-05T07:37:37;3.20;;;1.42;;
25731;SDS011;13585;50.864;4.406;2022-07-05T07:40:06;2.30;;;1.13;;
25731;SDS011;13585;50.864;4.406;2022-07-05T07:42:32;3.03;;;1.40;;
25731;SDS011;13585;50.864;4.406;2022-07-05T07:44:58;2.03;;;1.05;;
25731;SDS011;13585;50.864;4.406;2022-07-05T07:47:28;3.22;;;1.20;;
25731;SDS011;13585;50.864;4.406;2022-07-05T07:49:57;3.25;;;1.13;;
25731;SDS011;13585;50.864;4.406;2022-07-05T07:52:24;2.53;;;1.23;;
25731;SDS011;13585;50.864;4.406;2022-07-05T07:54:49;4.97;;;1.20;;
25731;SDS011;13585;50.864;4.406;2022-07-05T07:57:15;2.88;;;0.95;;
25731;SDS011;13585;50.864;4.406;2022-07-05T07:59:41;4.05;;;1.52;;
25731;SDS011;13585;50.864;4.406;2022-07-05T08:02:06;3.35;;;1.15;;
25731;SDS011;13585;50.864;4.406;2022-07-05T08:04:32;3.67;;;1.40;;
25731;SDS011;13585;50.864;4.406;2022-07-05T08:06:58;3.03;;;1.20;;
25731;SDS011;13585;50.864;4.406;2022-07-05T08:09:24;1.92;;;1.00;;
25731;SDS011;13585;50.864;4.406;2022-07-05T08:11:49;2.22;;;1.10;;
25731;SDS011;13585;50.864;4.406;2022-07-05T08:14:16;2.30;;;1.10;;
25731;SDS011;13585;50.864;4.406;2022-07-05T08:16:43;2.80;;;1.10;;
25731;SDS011;13585;50.864;4.406;2022-07-05T08:19:09;3.55;;;1.20;;
25731;SDS011;13585;50.864;4.406;2022-07-05T08:21:53;3.42;;;1.25;;
25731;SDS011;13585;50.864;4.406;2022-07-05T08:24:19;1.98;;;1.10;;
25731;SDS011;13585;50.864;4.406;2022-07-05T08:26:45;2.60;;;1.23;;
25731;SDS011;13585;50.864;4.406;2022-07-05T08:29:11;3.95;;;1.30;;
25731;SDS011;13585;50.864;4.406;2022-07-05T08:31:39;6.07;;;1.20;;
25731;SDS011;13585;50.864;4.406;2022-07-05T08:34:09;2.30;;;1.13;;
25731;SDS011;13585;50.864;4.406;2022-07-05T08:36:35;3.92;;;1.30;;
25731;SDS011;13585;50.864;4.406;2022-07-05T08:39:02;3.30;;;1.42;;
25731;SDS011;13585;50.864;4.406;2022-07-05T08:41:29;3.70;;;1.17;;
25731;SDS011;13585;50.864;4.406;2022-07-05T08:43:57;2.22;;;1.20;;
25731;SDS011;13585;50.864;4.406;2022-07-05T08:46:23;3.33;;;1.50;;
25731;SDS011;13585;50.864;4.406;2022-07-05T08:48:50;3.28;;;1.38;;
25731;SDS011;13585;50.864;4.406;2022-07-05T08:51:19;3.42;;;1.30;;
25731;SDS011;13585;50.864;4.406;2022-07-05T08:53:46;4.35;;;1.30;;
25731;SDS011;13585;50.864;4.406;2022-07-05T08:56:15;2.72;;;1.40;;
25731;SDS011;13585;50.864;4.406;2022-07-05T08:58:41;4.30;;;1.40;;
25731;SDS011;13585;50.864;4.406;2022-07-05T09:01:08;1.90;;;1.17;;
25731;SDS011;13585;50.864;4.406;2022-07-05T09:03:38;3.45;;;1.30;;
25731;SDS011;13585;50.864;4.406;2022-07-05T09:06:07;2.85;;;1.50;;
25731;SDS011;13585;50.864;4.406;2022-07-05T09:08:36;2.25;;;1.38;;
25731;SDS011;13585;50.864;4.406;2022-07-05T09:11:09;4.00;;;1.38;;
25731;SDS011;13585;50.864;4.406;2022-07-05T09:13:37;5.20;;;1.60;;
25731;SDS011;13585;50.864;4.406;2022-07-05T09:16:05;1.88;;;1.38;;
25731;SDS011;13585;50.864;4.406;2022-07-05T09:18:42;3.45;;;1.27;;
25731;SDS011;13585;50.864;4.406;2022-07-05T09:21:19;3.03;;;1.40;;
25731;SDS011;13585;50.864;4.406;2022-07-05T09:23:53;3.63;;;1.40;;
25731;SDS011;13585;50.864;4.406;2022-07-05T09:29:09;2.50;;;1.30;;
25731;SDS011;13585;50.864;4.406;2022-07-05T09:31:37;5.75;;;1.48;;
25731;SDS011;13585;50.864;4.406;2022-07-05T09:34:11;3.20;;;1.60;;
25731;SDS011;13585;50.864;4.406;2022-07-05T09:44:42;3.50;;;1.40;;
25731;SDS011;13585;50.864;4.406;2022-07-05T09:47:14;3.45;;;1.45;;
25731;SDS011;13585;50.864;4.406;2022-07-05T09:49:47;2.97;;;1.52;;
25731;SDS011;13585;50.864;4.406;2022-07-05T09:52:32;1.63;;;1.10;;
25731;SDS011;13585;50.864;4.406;2022-07-05T09:57:34;4.93;;;1.80;;
25731;SDS011;13585;50.864;4.406;2022-07-05T10:00:06;4.07;;;1.42;;
25731;SDS011;13585;50.864;4.406;2022-07-05T10:07:39;4.38;;;1.85;;
25731;SDS011;13585;50.864;4.406;2022-07-05T10:10:06;3.75;;;1.73;;
25731;SDS011;13585;50.864;4.406;2022-07-05T10:12:34;2.53;;;1.50;;
25731;SDS011;13585;50.864;4.406;2022-07-05T10:15:02;4.10;;;1.80;;
25731;SDS011;13585;50.864;4.406;2022-07-05T10:17:30;4.95;;;1.90;;
25731;SDS011;13585;50.864;4.406;2022-07-05T10:22:26;3.15;;;1.27;;
25731;SDS011;13585;50.864;4.406;2022-07-05T10:24:52;2.95;;;1.50;;
25731;SDS011;13585;50.864;4.406;2022-07-05T10:27:20;4.00;;;1.52;;
25731;SDS011;13585;50.864;4.406;2022-07-05T10:29:50;3.22;;;1.55;;
25731;SDS011;13585;50.864;4.406;2022-07-05T10:32:17;3.00;;;1.65;;
25731;SDS011;13585;50.864;4.406;2022-07-05T10:34:44;3.58;;;2.03;;
25731;SDS011;13585;50.864;4.406;2022-07-05T10:37:11;3.92;;;1.50;;
25731;SDS011;13585;50.864;4.406;2022-07-05T10:39:37;3.03;;;1.52;;
25731;SDS011;13585;50.864;4.406;2022-07-05T10:42:02;4.40;;;1.60;;
25731;SDS011;13585;50.864;4.406;2022-07-05T10:44:32;2.35;;;1.48;;
25731;SDS011;13585;50.864;4.406;2022-07-05T10:47:08;2.70;;;1.40;;
25731;SDS011;13585;50.864;4.406;2022-07-05T10:49:36;2.00;;;1.35;;
25731;SDS011;13585;50.864;4.406;2022-07-05T10:52:02;2.75;;;1.33;;
25731;SDS011;13585;50.864;4.406;2022-07-05T10:54:28;3.92;;;1.60;;
25731;SDS011;13585;50.864;4.406;2022-07-05T11:02:34;5.70;;;1.60;;
25731;SDS011;13585;50.864;4.406;2022-07-05T11:05:01;2.28;;;1.50;;
25731;SDS011;13585;50.864;4.406;2022-07-05T11:10:24;5.20;;;1.90;;
25731;SDS011;13585;50.864;4.406;2022-07-05T11:12:50;2.45;;;1.25;;
25731;SDS011;13585;50.864;4.406;2022-07-05T11:15:15;5.43;;;1.50;;
25731;SDS011;13585;50.864;4.406;2022-07-05T11:17:42;5.60;;;1.50;;
25731;SDS011;13585;50.864;4.406;2022-07-05T11:20:12;2.78;;;1.40;;
25731;SDS011;13585;50.864;4.406;2022-07-05T11:25:33;2.22;;;1.30;;
25731;SDS011;13585;50.864;4.406;2022-07-05T11:28:19;4.63;;;1.55;;
25731;SDS011;13585;50.864;4.406;2022-07-05T11:30:50;3.17;;;1.40;;
25731;SDS011;13585;50.864;4.406;2022-07-05T11:35:56;3.67;;;1.60;;
25731;SDS011;13585;50.864;4.406;2022-07-05T11:38:22;3.78;;;1.30;;
25731;SDS011;13585;50.864;4.406;2022-07-05T11:40:48;2.83;;;1.30;;
25731;SDS011;13585;50.864;4.406;2022-07-05T11:43:14;3.53;;;1.40;;
25731;SDS011;13585;50.864;4.406;2022-07-05T11:45:55;4.57;;;1.40;;
25731;SDS011;13585;50.864;4.406;2022-07-05T11:48:22;7.78;;;1.70;;
25731;SDS011;13585;50.864;4.406;2022-07-05T11:50:49;3.33;;;1.40;;
25731;SDS011;13585;50.864;4.406;2022-07-05T11:53:24;4.38;;;1.60;;
25731;SDS011;13585;50.864;4.406;2022-07-05T11:55:54;3.78;;;1.77;;
25731;SDS011;13585;50.864;4.406;2022-07-05T11:58:29;4.43;;;1.50;;
25731;SDS011;13585;50.864;4.406;2022-07-05T12:00:56;5.72;;;1.50;;
25731;SDS011;13585;50.864;4.406;2022-07-05T12:03:22;3.95;;;1.23;;
25731;SDS011;13585;50.864;4.406;2022-07-05T12:05:48;2.70;;;1.38;;
25731;SDS011;13585;50.864;4.406;2022-07-05T12:08:20;2.85;;;1.38;;
25731;SDS011;13585;50.864;4.406;2022-07-05T12:10:47;3.53;;;1.30;;
25731;SDS011;13585;50.864;4.406;2022-07-05T12:13:48;4.30;;;1.40;;
25731;SDS011;13585;50.864;4.406;2022-07-05T12:16:15;3.83;;;1.35;;
25731;SDS011;13585;50.864;4.406;2022-07-05T12:23:40;2.83;;;1.42;;
25731;SDS011;13585;50.864;4.406;2022-07-05T12:26:07;3.92;;;1.50;;
25731;SDS011;13585;50.864;4.406;2022-07-05T12:28:33;2.33;;;1.50;;
25731;SDS011;13585;50.864;4.406;2022-07-05T12:31:13;3.22;;;1.58;;
25731;SDS011;13585;50.864;4.406;2022-07-05T12:33:42;3.67;;;1.40;;
25731;SDS011;13585;50.864;4.406;2022-07-05T12:36:11;3.55;;;1.25;;
25731;SDS011;13585;50.864;4.406;2022-07-05T12:38:38;3.78;;;1.30;;
25731;SDS011;13585;50.864;4.406;2022-07-05T12:41:04;3.80;;;1.40;;
25731;SDS011;13585;50.864;4.406;2022-07-05T12:43:29;3.63;;;1.55;;
25731;SDS011;13585;50.864;4.406;2022-07-05T12:46:00;3.35;;;1.63;;
25731;SDS011;13585;50.864;4.406;2022-07-05T12:48:33;2.83;;;1.30;;
25731;SDS011;13585;50.864;4.406;2022-07-05T12:51:00;3.00;;;1.42;;
25731;SDS011;13585;50.864;4.406;2022-07-05T12:53:27;2.38;;;1.40;;
25731;SDS011;13585;50.864;4.406;2022-07-05T12:56:12;2.25;;;1.23;;
25731;SDS011;13585;50.864;4.406;2022-07-05T12:59:01;3.90;;;1.30;;
25731;SDS011;13585;50.864;4.406;2022-07-05T13:01:30;4.18;;;1.48;;
25731;SDS011;13585;50.864;4.406;2022-07-05T13:09:09;4.25;;;1.10;;
25731;SDS011;13585;50.864;4.406;2022-07-05T13:11:36;1.90;;;1.17;;
25731;SDS011;13585;50.864;4.406;2022-07-05T13:14:01;3.85;;;1.25;;
25731;SDS011;13585;50.864;4.406;2022-07-05T13:16:27;1.77;;;1.00;;
25731;SDS011;13585;50.864;4.406;2022-07-05T13:18:53;1.80;;;1.02;;
25731;SDS011;13585;50.864;4.406;2022-07-05T13:21:18;1.83;;;0.98;;
25731;SDS011;13585;50.864;4.406;2022-07-05T13:23:44;3.20;;;1.25;;
25731;SDS011;13585;50.864;4.406;2022-07-05T13:26:09;2.95;;;1.40;;
25731;SDS011;13585;50.864;4.406;2022-07-05T13:28:35;2.42;;;1.10;;
25731;SDS011;13585;50.864;4.406;2022-07-05T13:31:01;2.05;;;1.10;;
25731;SDS011;13585;50.864;4.406;2022-07-05T13:33:26;3.95;;;1.25;;
25731;SDS011;13585;50.864;4.406;2022-07-05T13:35:52;2.25;;;1.00;;
25731;SDS011;13585;50.864;4.406;2022-07-05T13:38:18;1.55;;;1.00;;
25731;SDS011;13585;50.864;4.406;2022-07-05T13:40:44;3.60;;;1.25;;
25731;SDS011;13585;50.864;4.406;2022-07-05T13:43:10;3.33;;;1.33;;
25731;SDS011;13585;50.864;4.406;2022-07-05T13:45:35;2.85;;;1.20;;
25731;SDS011;13585;50.864;4.406;2022-07-05T13:48:01;3.50;;;1.30;;
25731;SDS011;13585;50.864;4.406;2022-07-05T13:50:27;3.58;;;1.02;;
25731;SDS011;13585;50.864;4.406;2022-07-05T13:53:01;3.55;;;1.35;;
25731;SDS011;13585;50.864;4.406;2022-07-05T13:55:27;4.22;;;1.00;;
25731;SDS011;13585;50.864;4.406;2022-07-05T13:57:53;8.32;;;1.20;;
25731;SDS011;13585;50.864;4.406;2022-07-05T14:00:19;2.42;;;1.17;;
25731;SDS011;13585;50.864;4.406;2022-07-05T14:02:45;2.63;;;1.10;;
25731;SDS011;13585;50.864;4.406;2022-07-05T14:05:11;2.95;;;1.23;;
25731;SDS011;13585;50.864;4.406;2022-07-05T14:07:37;5.03;;;1.10;;
25731;SDS011;13585;50.864;4.406;2022-07-05T14:10:03;4.20;;;1.30;;
25731;SDS011;13585;50.864;4.406;2022-07-05T14:12:29;2.83;;;1.00;;
25731;SDS011;13585;50.864;4.406;2022-07-05T14:14:55;2.97;;;0.93;;
25731;SDS011;13585;50.864;4.406;2022-07-05T14:17:20;2.13;;;0.77;;
25731;SDS011;13585;50.864;4.406;2022-07-05T14:19:46;1.15;;;0.90;;
25731;SDS011;13585;50.864;4.406;2022-07-05T14:22:12;1.30;;;0.90;;
25731;SDS011;13585;50.864;4.406;2022-07-05T14:24:37;2.25;;;1.30;;
25731;SDS011;13585;50.864;4.406;2022-07-05T14:27:03;1.88;;;0.82;;
25731;SDS011;13585;50.864;4.406;2022-07-05T14:29:32;2.22;;;0.80;;
25731;SDS011;13585;50.864;4.406;2022-07-05T14:31:58;3.42;;;1.00;;
25731;SDS011;13585;50.864;4.406;2022-07-05T14:34:24;2.65;;;1.02;;
25731;SDS011;13585;50.864;4.406;2022-07-05T14:36:49;1.58;;;0.90;;
25731;SDS011;13585;50.864;4.406;2022-07-05T14:39:15;2.88;;;1.00;;
25731;SDS011;13585;50.864;4.406;2022-07-05T14:41:40;1.73;;;0.95;;
25731;SDS011;13585;50.864;4.406;2022-07-05T14:44:08;5.80;;;1.08;;
25731;SDS011;13585;50.864;4.406;2022-07-05T14:46:34;1.90;;;1.00;;
25731;SDS011;13585;50.864;4.406;2022-07-05T14:48:59;2.17;;;0.80;;
25731;SDS011;13585;50.864;4.406;2022-07-05T14:51:25;6.35;;;0.90;;
25731;SDS011;13585;50.864;4.406;2022-07-05T14:53:51;2.83;;;1.02;;
25731;SDS011;13585;50.864;4.406;2022-07-05T14:56:16;3.90;;;0.73;;
25731;SDS011;13585;50.864;4.406;2022-07-05T14:58:42;2.88;;;1.05;;
25731;SDS011;13585;50.864;4.406;2022-07-05T15:01:09;1.65;;;0.85;;
25731;SDS011;13585;50.864;4.406;2022-07-05T15:03:35;3.42;;;1.30;;
25731;SDS011;13585;50.864;4.406;2022-07-05T15:06:00;2.75;;;1.00;;
25731;SDS011;13585;50.864;4.406;2022-07-05T15:08:28;4.82;;;1.20;;
25731;SDS011;13585;50.864;4.406;2022-07-05T15:10:54;1.70;;;0.80;;
25731;SDS011;13585;50.864;4.406;2022-07-05T15:13:19;1.67;;;0.90;;
25731;SDS011;13585;50.864;4.406;2022-07-05T15:15:45;1.85;;;0.90;;
25731;SDS011;13585;50.864;4.406;2022-07-05T15:18:11;3.55;;;1.23;;
25731;SDS011;13585;50.864;4.406;2022-07-05T15:20:36;2.97;;;0.80;;
25731;SDS011;13585;50.864;4.406;2022-07-05T15:23:02;2.50;;;0.82;;
25731;SDS011;13585;50.864;4.406;2022-07-05T15:25:27;1.25;;;0.70;;
25731;SDS011;13585;50.864;4.406;2022-07-05T15:27:53;2.13;;;0.88;;
25731;SDS011;13585;50.864;4.406;2022-07-05T15:30:19;4.47;;;0.75;;
25731;SDS011;13585;50.864;4.406;2022-07-05T15:32:47;1.85;;;0.90;;
25731;SDS011;13585;50.864;4.406;2022-07-05T15:35:13;2.15;;;0.85;;